To NAV CANADA Home Page Login to a new session Search on AWWS site Feedback and Comments Disclaimer Vers la page française équivalente Tips FAQ What's new on the site To the Forecasts and Observations / NOTAM section To "File a Flight Plan" website Publications and other links Update of the User's profile FIC Telephone Numbers My Weather Data Folder Route Weather Data Regional Weather Data Local Weather Data To the Forecasts and Observations / NOTAM section
Request Generated 04/23/2014 at 14:21:00 UTC . Weather information available at that time is displayed.

METAR/TAF

LONDON/ON    

METAR CYXU 231400Z 32013KT 290V350 15SM SCT020 04/M00 A2998 RMK SC4
SLP160=
METAR CYXU 231300Z 34014G23KT 15SM BKN019 02/M01 A2997 RMK SC7
SLP157=
METAR CYXU 231200Z 34016G24KT 15SM BKN019 02/M01 A2995 RMK SC7
SLP150=

TAF CYXU 231138Z 2312/2412 34015G25KT P6SM BKN015 TEMPO 2312/2316
FEW015
FM231600 34015G25KT P6SM FEW015
BECMG 2321/2323 33015KT
FM240300 35010KT P6SM SKC
FM241000 VRB03KT P6SM BKN180
RMK NXT FCST BY 231800Z=
Your time UTC time
Weather data provided by Environment Canada and NAV CANADA